Terminal Aerodrome Forecast
Issued by NWS

Home | Current Version | Previous Version | Text Only | Print | Product List | Glossary Off
Versions: 1 2 3 4 5 6 7 8 9 10 11 12 13 14

933
FTUS43 KICT 211500 AAA
TAFHUT
TAF AMD
KHUT 211500Z 2115/2212 VRB03KT P6SM SCT012
      TEMPO 2115/2116 BKN008
     FM211700 VRB03KT P6SM SCT025
     FM211900 17006KT P6SM SKC=

USA.gov is the U.S. government's official web portal to all federal, state and local government web resources and services.